createdAt,value
2022-11-02T00:01:41.343Z,53.00
2022-11-02T00:04:10.243Z,53.23
2022-11-02T00:06:38.735Z,52.96
2022-11-02T00:09:07.116Z,53.26
2022-11-02T00:11:37.227Z,53.41
2022-11-02T00:14:07.095Z,52.91
2022-11-02T00:16:40.159Z,53.15
2022-11-02T00:19:09.943Z,53.26
2022-11-02T00:21:39.332Z,53.35
2022-11-02T00:24:09.738Z,53.28
2022-11-02T00:26:38.632Z,52.91
2022-11-02T00:29:09.526Z,53.32
2022-11-02T00:31:37.961Z,53.25
2022-11-02T00:34:06.451Z,52.93
2022-11-02T00:36:35.205Z,52.93
2022-11-02T00:39:03.887Z,53.37
2022-11-02T00:41:32.286Z,52.98
2022-11-02T00:44:00.772Z,53.24
2022-11-02T00:46:30.512Z,52.76
2022-11-02T00:48:59.394Z,53.25
2022-11-02T00:51:29.255Z,52.91
2022-11-02T00:53:57.690Z,53.08
2022-11-02T00:56:26.432Z,52.98
2022-11-02T00:58:54.898Z,53.08
2022-11-02T01:01:23.466Z,52.78
2022-11-02T01:03:53.259Z,52.63
2022-11-02T01:06:21.661Z,53.13
2022-11-02T01:08:50.143Z,52.63
2022-11-02T01:11:22.388Z,52.74
2022-11-02T01:13:54.278Z,52.68
2022-11-02T01:16:22.834Z,52.70
2022-11-02T01:18:54.335Z,52.90
2022-11-02T01:21:23.086Z,52.54
2022-11-02T01:23:51.818Z,52.42
2022-11-02T01:26:20.274Z,52.83
2022-11-02T01:28:48.772Z,52.40
2022-11-02T01:31:17.192Z,52.82
2022-11-02T01:33:47.071Z,52.40
2022-11-02T01:38:55.673Z,52.30
2022-11-02T01:41:24.162Z,52.43
2022-11-02T01:43:55.117Z,52.36
2022-11-02T01:46:25.946Z,52.25
2022-11-02T01:49:00.240Z,52.29
2022-11-02T01:51:34.271Z,52.20
2022-11-02T01:54:09.002Z,52.59
2022-11-02T01:56:39.318Z,52.46
2022-11-02T01:59:11.966Z,52.17
2022-11-02T02:01:40.536Z,52.69
2022-11-02T02:04:09.583Z,52.13
2022-11-02T02:06:41.966Z,52.27
2022-11-02T02:09:11.180Z,52.68
2022-11-02T02:11:41.248Z,52.49
2022-11-02T02:14:12.879Z,52.61
2022-11-02T02:16:58.510Z,52.63
2022-11-02T02:19:42.187Z,52.35
2022-11-02T02:22:27.819Z,52.43
2022-11-02T02:25:08.471Z,52.16
2022-11-02T02:27:55.045Z,52.50
2022-11-02T02:30:24.163Z,52.13
2022-11-02T02:32:59.308Z,52.37
2022-11-02T02:35:35.666Z,51.95
2022-11-02T02:38:09.039Z,52.12
2022-11-02T02:40:41.135Z,52.23
2022-11-02T02:43:14.320Z,51.85
2022-11-02T02:45:46.952Z,52.30
2022-11-02T02:48:19.439Z,51.89
2022-11-02T02:50:50.807Z,51.91
2022-11-02T02:53:26.527Z,52.20
2022-11-02T02:55:55.991Z,52.22
2022-11-02T02:58:30.676Z,52.23
2022-11-02T03:01:01.658Z,51.90
2022-11-02T03:03:32.394Z,51.98
2022-11-02T03:06:08.988Z,51.79
2022-11-02T03:08:42.323Z,52.24
2022-11-02T03:11:14.962Z,51.90
2022-11-02T03:14:01.989Z,51.93
2022-11-02T03:16:39.831Z,51.69
2022-11-02T03:19:20.800Z,52.08
2022-11-02T03:21:56.181Z,51.97
2022-11-02T03:24:30.922Z,51.74
2022-11-02T03:27:06.285Z,51.71
2022-11-02T03:29:43.010Z,52.02
2022-11-02T03:32:21.270Z,52.17
2022-11-02T03:34:56.388Z,51.76
2022-11-02T03:37:30.375Z,51.87
2022-11-02T03:40:07.342Z,51.74
2022-11-02T03:42:37.374Z,51.59
2022-11-02T03:45:14.255Z,51.94
2022-11-02T03:47:47.386Z,51.96
2022-11-02T03:50:21.014Z,51.95
2022-11-02T03:52:56.951Z,51.51
2022-11-02T03:55:31.901Z,51.96
2022-11-02T03:58:00.717Z,51.99
2022-11-02T04:00:35.969Z,51.45
2022-11-02T04:03:12.558Z,52.07
2022-11-02T04:05:45.164Z,51.51
2022-11-02T04:08:24.372Z,52.00
2022-11-02T04:11:14.086Z,51.89
2022-11-02T04:14:02.672Z,51.54
2022-11-02T04:16:37.326Z,51.79
2022-11-02T04:19:28.556Z,51.52
2022-11-02T04:22:23.827Z,51.77
2022-11-02T04:25:14.842Z,51.88
2022-11-02T04:27:48.870Z,51.79
2022-11-02T04:30:19.646Z,51.43
2022-11-02T04:33:09.134Z,51.85
2022-11-02T04:35:48.265Z,51.87
2022-11-02T04:38:34.485Z,51.71
2022-11-02T04:41:20.798Z,51.84
2022-11-02T04:43:52.179Z,51.70
2022-11-02T04:46:22.888Z,51.77
2022-11-02T04:48:53.065Z,51.20
2022-11-02T04:51:23.287Z,51.65
2022-11-02T04:53:53.925Z,51.48
2022-11-02T04:56:23.261Z,51.56
2022-11-02T04:58:53.123Z,51.30
2022-11-02T05:01:23.307Z,51.69
2022-11-02T05:03:55.001Z,51.53
2022-11-02T05:06:25.993Z,51.42
2022-11-02T05:08:56.457Z,51.64
2022-11-02T05:11:26.471Z,51.74
2022-11-02T05:13:56.613Z,51.27
2022-11-02T05:16:25.191Z,51.61
2022-11-02T05:18:58.279Z,51.72
2022-11-02T05:21:27.427Z,51.36
2022-11-02T05:23:57.139Z,51.20
2022-11-02T05:26:25.592Z,51.22
2022-11-02T05:28:54.082Z,51.16
2022-11-02T05:31:22.964Z,51.71
2022-11-02T05:33:51.962Z,51.64
2022-11-02T05:36:24.511Z,51.58
2022-11-02T05:38:54.479Z,51.22
2022-11-02T05:41:23.730Z,51.33
2022-11-02T05:43:55.319Z,51.30
2022-11-02T05:46:25.424Z,51.64
2022-11-02T05:48:53.911Z,51.64
2022-11-02T05:51:23.713Z,51.63
2022-11-02T05:53:52.135Z,51.16
2022-11-02T05:56:24.837Z,51.57
2022-11-02T05:58:55.263Z,51.68
2022-11-02T06:01:23.737Z,51.41
2022-11-02T06:03:53.654Z,51.65
2022-11-02T06:06:23.901Z,51.32
2022-11-02T06:08:52.368Z,51.35
2022-11-02T06:11:20.779Z,51.65
2022-11-02T06:13:51.079Z,51.64
2022-11-02T06:16:22.983Z,51.23
2022-11-02T06:18:51.938Z,51.20
2022-11-02T06:21:20.406Z,51.28
2022-11-02T06:23:50.504Z,51.49
2022-11-02T06:26:19.055Z,51.65
2022-11-02T06:28:47.588Z,53.27
2022-11-02T06:31:17.446Z,53.29
2022-11-02T06:33:46.276Z,52.94
2022-11-02T06:36:14.829Z,52.82
2022-11-02T06:38:44.120Z,53.07
2022-11-02T06:41:13.915Z,53.37
2022-11-02T06:43:43.062Z,53.20
2022-11-02T06:46:11.491Z,53.26
2022-11-02T06:48:39.927Z,52.95
2022-11-02T06:51:08.643Z,53.07
2022-11-02T06:53:37.057Z,52.98
2022-11-02T06:56:05.840Z,52.64
2022-11-02T06:58:35.632Z,52.86
2022-11-02T07:01:08.214Z,53.40
2022-11-02T07:03:37.117Z,53.31
2022-11-02T07:06:11.047Z,53.22
2022-11-02T07:08:42.272Z,53.15
2022-11-02T07:11:15.016Z,52.65
2022-11-02T07:13:45.553Z,53.16
2022-11-02T07:16:14.178Z,52.79
2022-11-02T07:18:43.092Z,52.77
2022-11-02T07:21:11.971Z,52.76
2022-11-02T07:23:40.622Z,52.72
2022-11-02T07:26:09.122Z,52.55
2022-11-02T07:28:38.322Z,52.08
2022-11-02T07:31:08.358Z,51.87
2022-11-02T07:33:36.808Z,52.16
2022-11-02T07:36:06.221Z,51.92
2022-11-02T07:38:34.708Z,52.13
2022-11-02T07:41:03.729Z,51.96
2022-11-02T07:43:32.231Z,51.68
2022-11-02T07:46:18.684Z,51.29
2022-11-02T07:48:47.780Z,50.73
2022-11-02T07:51:16.195Z,51.10
2022-11-02T07:53:44.675Z,51.14
2022-11-02T07:56:13.096Z,51.08
2022-11-02T07:58:42.604Z,50.85
2022-11-02T08:01:11.079Z,51.56
2022-11-02T08:03:40.890Z,51.87
2022-11-02T08:06:09.685Z,51.69
2022-11-02T08:08:38.107Z,52.26
2022-11-02T08:11:08.794Z,51.98
2022-11-02T08:13:38.865Z,52.46
2022-11-02T08:16:07.812Z,51.66
2022-11-02T08:18:36.264Z,51.27
2022-11-02T08:21:06.282Z,50.52
2022-11-02T08:23:34.778Z,50.19
2022-11-02T08:26:03.268Z,49.47
2022-11-02T08:28:35.520Z,49.13
2022-11-02T08:31:03.960Z,48.84
2022-11-02T08:33:32.447Z,48.55
2022-11-02T08:36:04.487Z,49.33
2022-11-02T08:38:34.308Z,49.18
2022-11-02T08:41:03.030Z,49.73
2022-11-02T08:43:31.536Z,49.97
2022-11-02T08:46:17.230Z,49.74
2022-11-02T08:48:46.229Z,50.29
2022-11-02T08:51:14.789Z,50.16
2022-11-02T08:53:50.235Z,50.60
2022-11-02T08:56:19.968Z,50.76
2022-11-02T08:58:48.488Z,50.93
2022-11-02T09:01:17.057Z,50.53
2022-11-02T09:03:45.596Z,50.91
2022-11-02T09:06:14.389Z,51.13
2022-11-02T09:08:44.237Z,50.57
2022-11-02T09:11:12.694Z,50.98
2022-11-02T09:13:41.235Z,51.46
2022-11-02T09:16:09.950Z,51.37
2022-11-02T09:18:38.546Z,50.74
2022-11-02T09:21:07.554Z,51.30
2022-11-02T09:23:36.015Z,51.00
2022-11-02T09:26:05.927Z,51.29
2022-11-02T09:28:34.375Z,51.14
2022-11-02T09:31:04.874Z,50.98
2022-11-02T09:33:36.205Z,51.11
2022-11-02T09:36:05.837Z,50.59
2022-11-02T09:38:34.799Z,49.91
2022-11-02T09:41:13.717Z,49.96
2022-11-02T09:43:54.205Z,49.16
2022-11-02T09:46:26.886Z,49.33
2022-11-02T09:48:58.183Z,49.01
2022-11-02T09:51:30.622Z,48.54
2022-11-02T09:54:07.038Z,48.11
2022-11-02T09:56:37.395Z,48.16
2022-11-02T09:59:12.650Z,47.92
2022-11-02T10:01:57.846Z,47.92
2022-11-02T10:04:40.252Z,48.03
2022-11-02T10:07:17.177Z,47.82
2022-11-02T10:09:53.812Z,47.65
2022-11-02T10:12:30.623Z,47.37
2022-11-02T10:15:05.759Z,47.30
2022-11-02T10:17:37.712Z,47.20
2022-11-02T10:20:16.127Z,47.28
2022-11-02T10:22:48.116Z,46.94
2022-11-02T10:25:18.100Z,46.88
2022-11-02T10:27:53.732Z,47.05
2022-11-02T10:30:22.892Z,46.94
2022-11-02T10:32:55.504Z,46.49
2022-11-02T10:35:45.826Z,46.30
2022-11-02T10:38:34.447Z,45.83
2022-11-02T10:41:19.138Z,45.49
2022-11-02T10:44:08.943Z,45.92
2022-11-02T10:46:52.641Z,46.01
2022-11-02T10:49:40.714Z,45.37
2022-11-02T10:52:14.943Z,45.22
2022-11-02T10:54:43.585Z,45.69
2022-11-02T10:57:13.966Z,45.77
2022-11-02T10:59:43.866Z,45.66
2022-11-02T11:02:14.494Z,46.10
2022-11-02T11:04:43.738Z,44.83
2022-11-02T11:07:17.580Z,44.91
2022-11-02T11:09:53.960Z,44.21
2022-11-02T11:12:27.189Z,44.12
2022-11-02T11:20:38.461Z,44.25
2022-11-02T11:23:18.956Z,44.53
2022-11-02T11:25:59.376Z,44.49
2022-11-02T11:28:31.876Z,44.23
2022-11-02T11:31:11.288Z,43.96
2022-11-02T11:33:45.248Z,44.13
2022-11-02T11:36:27.300Z,44.75
2022-11-02T11:38:59.390Z,44.27
2022-11-02T11:41:28.972Z,44.58
2022-11-02T11:43:58.010Z,44.32
2022-11-02T11:46:40.330Z,44.56
2022-11-02T11:49:31.055Z,44.75
2022-11-02T11:52:05.679Z,44.54
2022-11-02T11:54:34.670Z,44.28
2022-11-02T11:57:24.847Z,44.31
2022-11-02T11:59:55.319Z,44.39
2022-11-02T12:02:27.782Z,43.89
2022-11-02T12:05:01.777Z,45.10
2022-11-02T12:08:00.751Z,44.51
2022-11-02T12:10:44.202Z,44.34
2022-11-02T12:13:25.031Z,43.72
2022-11-02T12:16:10.073Z,44.68
2022-11-02T12:19:01.727Z,44.56
2022-11-02T12:21:44.263Z,45.02
2022-11-02T12:24:38.988Z,45.22
2022-11-02T12:27:22.896Z,45.31
2022-11-02T12:30:12.349Z,45.61
2022-11-02T12:33:15.532Z,45.35
2022-11-02T12:36:03.944Z,45.19
2022-11-02T12:38:54.993Z,45.09
2022-11-02T12:41:38.854Z,45.05
2022-11-02T12:44:21.805Z,45.15
2022-11-02T12:46:57.912Z,44.35
2022-11-02T12:49:38.007Z,44.90
2022-11-02T12:52:19.089Z,44.51
2022-11-02T12:54:50.296Z,45.14
2022-11-02T12:57:22.448Z,44.97
2022-11-02T12:59:55.416Z,44.95
2022-11-02T13:02:30.083Z,44.79
2022-11-02T13:05:02.642Z,44.93
2022-11-02T13:07:37.240Z,44.36
2022-11-02T13:10:14.691Z,44.61
2022-11-02T13:12:45.598Z,44.31
2022-11-02T13:15:17.344Z,44.53
2022-11-02T13:17:48.717Z,44.59
2022-11-02T13:20:21.060Z,44.38
2022-11-02T13:22:56.555Z,44.53
2022-11-02T13:25:32.890Z,44.14
2022-11-02T13:28:07.340Z,43.98
2022-11-02T13:30:37.168Z,44.29
2022-11-02T13:33:13.596Z,43.86
2022-11-02T13:35:42.995Z,43.39
2022-11-02T13:38:29.694Z,43.82
2022-11-02T13:41:10.387Z,44.24
2022-11-02T13:44:01.763Z,44.79
2022-11-02T13:46:44.593Z,45.04
2022-11-02T13:49:15.917Z,45.31
2022-11-02T13:51:47.965Z,45.05
2022-11-02T13:54:22.495Z,45.53
2022-11-02T13:56:55.333Z,45.36
2022-11-02T13:59:28.033Z,45.67
2022-11-02T14:01:58.099Z,45.81
2022-11-02T14:04:27.776Z,45.72
2022-11-02T14:07:00.013Z,46.04
2022-11-02T14:09:35.560Z,46.00
2022-11-02T14:12:29.327Z,46.36
2022-11-02T14:15:42.136Z,46.59
2022-11-02T14:18:16.124Z,46.79
2022-11-02T14:20:46.862Z,46.32
2022-11-02T14:23:35.763Z,46.47
2022-11-02T14:26:06.017Z,46.67
2022-11-02T14:28:45.103Z,46.77
2022-11-02T14:31:41.154Z,47.03
2022-11-02T14:34:46.761Z,47.20
2022-11-02T14:37:34.275Z,47.16
2022-11-02T14:40:12.977Z,47.78
2022-11-02T14:43:03.476Z,47.69
2022-11-02T14:45:44.935Z,47.35
2022-11-02T14:48:17.143Z,47.56
2022-11-02T14:51:00.704Z,47.88
2022-11-02T14:53:33.249Z,48.11
2022-11-02T14:56:02.037Z,47.87
2022-11-02T14:58:35.908Z,48.30
2022-11-02T15:01:05.911Z,48.41
2022-11-02T15:03:38.112Z,48.15
2022-11-02T15:06:15.026Z,48.33
2022-11-02T15:08:52.370Z,48.29
2022-11-02T15:11:46.983Z,48.57
2022-11-02T15:14:54.951Z,48.89
2022-11-02T15:18:08.384Z,48.55
2022-11-02T15:20:42.354Z,48.86
2022-11-02T15:23:30.671Z,48.75
2022-11-02T15:26:01.434Z,48.69
2022-11-02T15:28:33.434Z,49.34
2022-11-02T15:31:08.091Z,49.15
2022-11-02T15:33:39.980Z,49.52
2022-11-02T15:36:14.855Z,49.73
2022-11-02T15:38:49.243Z,49.36
2022-11-02T15:41:25.220Z,49.86
2022-11-02T15:44:11.806Z,49.45
2022-11-02T15:46:53.457Z,49.80
2022-11-02T15:49:54.407Z,50.10
2022-11-02T15:52:36.099Z,50.09
2022-11-02T15:55:16.024Z,49.49
2022-11-02T15:57:53.371Z,49.99
2022-11-02T16:00:30.157Z,49.99
2022-11-02T16:03:04.000Z,49.95
2022-11-02T16:05:34.814Z,49.75
2022-11-02T16:08:10.797Z,50.24
2022-11-02T16:10:39.737Z,49.97
2022-11-02T16:13:17.221Z,49.63
2022-11-02T16:15:47.018Z,49.90
2022-11-02T16:18:28.234Z,49.35
2022-11-02T16:20:59.543Z,49.88
2022-11-02T16:23:31.273Z,49.64
2022-11-02T16:26:02.357Z,49.55
2022-11-02T16:28:32.971Z,49.75
2022-11-02T16:31:10.090Z,49.71
2022-11-02T16:33:44.185Z,49.80
2022-11-02T16:36:15.551Z,49.50
2022-11-02T16:38:49.080Z,49.57
2022-11-02T16:41:18.153Z,50.03
2022-11-02T16:43:47.700Z,50.34
2022-11-02T16:46:17.948Z,50.23
2022-11-02T16:49:14.986Z,50.04
2022-11-02T16:51:54.636Z,49.87
2022-11-02T16:54:39.839Z,50.02
2022-11-02T16:57:15.999Z,49.78
2022-11-02T16:59:53.188Z,50.11
2022-11-02T17:02:30.398Z,50.01
2022-11-02T17:05:04.850Z,50.64
2022-11-02T17:07:39.882Z,50.33
2022-11-02T17:10:10.276Z,49.77
2022-11-02T17:12:43.569Z,50.12
2022-11-02T17:15:18.601Z,50.03
2022-11-02T17:17:47.502Z,50.43
2022-11-02T17:20:24.086Z,50.28
2022-11-02T17:22:58.266Z,49.89
2022-11-02T17:25:28.576Z,50.08
2022-11-02T17:27:58.189Z,49.52
2022-11-02T17:30:44.381Z,49.32
2022-11-02T17:33:25.743Z,49.57
2022-11-02T17:35:57.571Z,49.62
2022-11-02T17:38:28.021Z,49.64
2022-11-02T17:40:56.625Z,49.66
2022-11-02T17:43:24.203Z,49.60
2022-11-02T17:45:57.397Z,49.59
2022-11-02T17:48:28.702Z,49.30
2022-11-02T17:51:00.513Z,49.13
2022-11-02T17:53:29.113Z,49.10
2022-11-02T17:55:57.661Z,49.29
2022-11-02T17:58:26.133Z,49.25
2022-11-02T18:00:55.360Z,49.28
2022-11-02T18:03:29.918Z,48.98
2022-11-02T18:06:01.101Z,49.20
2022-11-02T18:08:29.991Z,49.05
2022-11-02T18:10:58.484Z,49.05
2022-11-02T18:13:27.028Z,48.74
2022-11-02T18:15:55.493Z,48.75
2022-11-02T18:18:23.981Z,48.52
2022-11-02T18:20:52.383Z,48.58
2022-11-02T18:23:22.131Z,48.53
2022-11-02T18:25:52.823Z,48.62
2022-11-02T18:28:23.776Z,48.85
2022-11-02T18:30:52.251Z,48.76
2022-11-02T18:33:20.850Z,48.87
2022-11-02T18:35:49.376Z,49.12
2022-11-02T18:38:17.900Z,48.86
2022-11-02T18:40:47.774Z,48.90
2022-11-02T18:43:16.167Z,49.49
2022-11-02T18:45:44.627Z,49.44
2022-11-02T18:48:13.020Z,50.04
2022-11-02T18:50:41.532Z,49.65
2022-11-02T18:53:11.145Z,49.96
2022-11-02T18:55:40.481Z,50.19
2022-11-02T18:58:12.447Z,50.14
2022-11-02T19:00:40.906Z,49.90
2022-11-02T19:03:11.586Z,50.07
2022-11-02T19:08:48.638Z,49.97
2022-11-02T19:11:16.888Z,49.81
2022-11-02T19:13:46.660Z,50.01
2022-11-02T19:16:15.091Z,49.61
2022-11-02T19:18:43.525Z,49.88
2022-11-02T19:21:11.928Z,49.61
2022-11-02T19:23:40.348Z,49.67
2022-11-02T19:26:09.236Z,49.75
2022-11-02T19:28:37.686Z,49.62
2022-11-02T19:31:08.191Z,50.17
2022-11-02T19:33:36.886Z,49.74
2022-11-02T19:36:06.117Z,49.62
2022-11-02T19:38:38.177Z,50.20
2022-11-02T19:41:09.825Z,50.15
2022-11-02T19:43:39.251Z,49.83
2022-11-02T19:46:13.218Z,49.71
2022-11-02T19:48:41.600Z,50.04
2022-11-02T19:51:14.628Z,49.89
2022-11-02T19:53:48.988Z,49.80
2022-11-02T19:56:19.158Z,49.82
2022-11-02T19:58:49.311Z,49.68
2022-11-02T20:01:21.454Z,49.91
2022-11-02T20:03:50.568Z,50.13
2022-11-02T20:06:21.127Z,50.10
2022-11-02T20:08:53.274Z,49.92
2022-11-02T20:11:22.803Z,50.20
2022-11-02T20:13:52.078Z,50.02
2022-11-02T20:16:21.996Z,49.67
2022-11-02T20:18:51.841Z,50.21
2022-11-02T20:21:25.672Z,49.94
2022-11-02T20:23:57.644Z,50.18
2022-11-02T20:26:27.779Z,49.90
2022-11-02T20:28:56.376Z,49.90
2022-11-02T20:31:28.393Z,49.69
2022-11-02T20:33:56.867Z,49.94
2022-11-02T20:36:26.731Z,50.11
2022-11-02T20:38:56.193Z,49.81
2022-11-02T20:41:26.036Z,50.05
2022-11-02T20:43:55.865Z,49.85
2022-11-02T20:46:45.289Z,50.11
2022-11-02T20:49:48.946Z,49.70
2022-11-02T20:52:04.399Z,50.07
2022-11-02T20:54:32.899Z,49.74
2022-11-02T20:57:01.355Z,49.72
2022-11-02T20:59:29.792Z,49.73
2022-11-02T21:01:59.756Z,49.63
2022-11-02T21:04:28.348Z,49.66
2022-11-02T21:06:56.833Z,50.19
2022-11-02T21:09:30.412Z,50.18
2022-11-02T21:12:16.965Z,49.83
2022-11-02T21:14:45.382Z,49.71
2022-11-02T21:17:15.287Z,50.20
2022-11-02T21:19:43.723Z,50.15
2022-11-02T21:22:13.001Z,49.74
2022-11-02T21:24:41.456Z,49.99
2022-11-02T21:27:09.918Z,50.11
2022-11-02T21:29:38.355Z,50.17
2022-11-02T21:32:07.610Z,49.76
2022-11-02T21:34:37.406Z,49.92
2022-11-02T21:37:06.918Z,50.14
2022-11-02T21:39:35.804Z,50.21
2022-11-02T21:42:05.124Z,49.92
2022-11-02T21:44:33.564Z,49.62
2022-11-02T21:47:01.968Z,49.82
2022-11-02T21:49:30.532Z,50.06
2022-11-02T21:52:00.419Z,49.67
2022-11-02T21:54:28.844Z,50.21
2022-11-02T21:56:57.912Z,49.72
2022-11-02T21:59:26.347Z,50.07
2022-11-02T22:01:54.174Z,49.96
2022-11-02T22:04:25.270Z,50.02
2022-11-02T22:06:54.128Z,50.11
2022-11-02T22:09:24.239Z,49.98
2022-11-02T22:12:15.020Z,49.67
2022-11-02T22:14:44.725Z,49.73
2022-11-02T22:17:43.399Z,50.06
2022-11-02T22:20:02.199Z,50.16
2022-11-02T22:22:30.583Z,50.01
2022-11-02T22:25:00.323Z,49.98
2022-11-02T22:27:28.711Z,49.57
2022-11-02T22:29:57.096Z,50.13
2022-11-02T22:32:25.504Z,50.06
2022-11-02T22:34:53.866Z,49.93
2022-11-02T22:37:39.671Z,49.55
2022-11-02T22:40:10.588Z,49.78
2022-11-02T22:42:41.562Z,49.62
2022-11-02T22:45:11.934Z,50.06
2022-11-02T22:47:40.386Z,50.12
2022-11-02T22:50:09.277Z,50.08
2022-11-02T22:52:37.695Z,49.94
2022-11-02T22:55:07.018Z,50.07
2022-11-02T22:57:36.743Z,50.06
2022-11-02T23:00:06.809Z,49.85
2022-11-02T23:02:35.216Z,49.88
2022-11-02T23:05:03.650Z,49.73
2022-11-02T23:07:32.076Z,49.85
2022-11-02T23:10:20.547Z,49.55
2022-11-02T23:12:49.363Z,49.66
2022-11-02T23:15:17.833Z,49.76
2022-11-02T23:17:46.248Z,49.55
2022-11-02T23:20:13.819Z,50.08
2022-11-02T23:22:59.952Z,49.76
2022-11-02T23:25:28.169Z,50.07
2022-11-02T23:28:16.844Z,49.60
2022-11-02T23:31:02.822Z,49.55
2022-11-02T23:33:32.945Z,50.01
2022-11-02T23:36:13.433Z,49.98
2022-11-02T23:39:00.521Z,49.66
2022-11-02T23:41:30.054Z,49.66
2022-11-02T23:44:12.721Z,49.80
2022-11-02T23:46:42.332Z,50.09
2022-11-02T23:49:10.994Z,50.07
2022-11-02T23:51:57.724Z,49.90
2022-11-02T23:54:43.892Z,49.68
2022-11-02T23:57:12.609Z,49.55
2022-11-02T23:59:42.473Z,49.95
